FEFT

Berbérati Airport

Berbérati, Central African Republic
METAR FEFT 201000Z 28019KT 7000 SCT020 29/21 Q1012
Observed Flight Rules
Jan-20 @ 10:00 UTC (an hour ago) Marginal Visual Flight Rules
Wind Visibility Clouds
280° at 19 knots 7,001 meters
  • Scattered at 2,000' AGL
Temperatures Readings
Current 29°C / 84°F
Dewpoint 21°C / 70°F
Humidity 62%
Altimeter 29.88" Hg
Pressure 1011.92 hPa
Elevation 583
METAR FEFT 201000Z 28019KT 7000 SCT020 29/21 Q1012
Observed Flight Rules
Jan-20 @ 10:00 UTC
(an hour ago)
MVFR
Wind Visibility
280° at 19 knots 7,001 meters
Clouds
  • Scattered at 2,000' AGL
Temperature Dewpoint
29°C / 84°F 21°C / 70°F
Humidity Altimeter Pressure
62% 29.88" Hg 1011.92 hPa